createdAt,value
2018-04-29T00:01:55.478Z,19.45
2018-04-29T00:04:22.906Z,18.10
2018-04-29T00:06:50.646Z,14.90
2018-04-29T00:09:18.088Z,19.15
2018-04-29T00:11:45.551Z,16.65
2018-04-29T00:14:12.989Z,12.82
2018-04-29T00:16:40.445Z,15.68
2018-04-29T00:19:07.886Z,19.80
2018-04-29T00:21:35.345Z,14.18
2018-04-29T00:24:02.752Z,15.93
2018-04-29T00:26:30.205Z,18.10
2018-04-29T00:28:57.695Z,16.75
2018-04-29T00:31:25.167Z,16.37
2018-04-29T00:33:52.747Z,16.67
2018-04-29T00:36:20.190Z,14.07
2018-04-29T00:38:47.678Z,21.02
2018-04-29T00:41:15.118Z,18.85
2018-04-29T00:43:42.571Z,18.70
2018-04-29T00:46:10.346Z,16.37
2018-04-29T00:48:37.808Z,13.27
2018-04-29T00:51:05.259Z,18.70
2018-04-29T00:53:33.084Z,16.58
2018-04-29T00:56:00.541Z,12.18
2018-04-29T00:58:27.966Z,27.00
2018-04-29T01:00:55.378Z,16.25
2018-04-29T01:03:22.843Z,20.73
2018-04-29T01:05:50.277Z,16.67
2018-04-29T01:08:17.719Z,20.05
2018-04-29T01:10:45.167Z,16.00
2018-04-29T01:13:12.648Z,15.80
2018-04-29T01:15:40.141Z,23.45
2018-04-29T01:18:07.572Z,19.75
2018-04-29T01:20:35.004Z,17.25
2018-04-29T01:23:02.427Z,14.15
2018-04-29T01:25:29.838Z,18.10
2018-04-29T01:27:57.261Z,13.23
2018-04-29T01:30:24.663Z,20.83
2018-04-29T01:32:52.140Z,14.38
2018-04-29T01:35:19.631Z,24.35
2018-04-29T01:37:47.033Z,15.32
2018-04-29T01:40:14.500Z,14.02
2018-04-29T01:42:41.937Z,18.00
2018-04-29T01:45:09.397Z,14.87
2018-04-29T01:47:37.384Z,16.95
2018-04-29T01:50:04.828Z,28.48
2018-04-29T01:52:32.291Z,12.75
2018-04-29T01:54:59.830Z,17.65
2018-04-29T01:57:27.246Z,12.52
2018-04-29T01:59:54.703Z,17.87
2018-04-29T02:02:22.168Z,18.37
2018-04-29T02:04:49.567Z,14.60
2018-04-29T02:07:17.029Z,16.00
2018-04-29T02:09:44.565Z,20.35
2018-04-29T02:12:12.264Z,20.00
2018-04-29T02:14:39.686Z,13.30
2018-04-29T02:17:07.085Z,20.17
2018-04-29T02:19:34.652Z,16.75
2018-04-29T02:22:02.731Z,18.37
2018-04-29T02:24:30.281Z,12.18
2018-04-29T02:26:57.834Z,21.55
2018-04-29T02:29:25.295Z,22.75
2018-04-29T02:31:52.797Z,16.58
2018-04-29T02:34:20.291Z,15.70
2018-04-29T02:36:47.737Z,16.80
2018-04-29T02:39:15.220Z,16.85
2018-04-29T02:41:42.630Z,21.35
2018-04-29T02:44:10.122Z,16.00
2018-04-29T02:46:37.551Z,13.18
2018-04-29T02:49:04.948Z,19.05
2018-04-29T02:51:32.352Z,13.23
2018-04-29T02:54:00.614Z,11.70
2018-04-29T02:56:28.432Z,17.30
2018-04-29T02:58:55.847Z,15.07
2018-04-29T03:01:23.381Z,12.98
2018-04-29T03:03:50.849Z,15.55
2018-04-29T03:06:18.337Z,16.80
2018-04-29T03:08:45.805Z,15.38
2018-04-29T03:11:13.211Z,20.88
2018-04-29T03:13:40.642Z,18.52
2018-04-29T03:16:08.199Z,15.65
2018-04-29T03:18:35.646Z,12.27
2018-04-29T03:21:03.069Z,14.93
2018-04-29T03:23:30.610Z,16.40
2018-04-29T03:25:58.145Z,18.42
2018-04-29T03:28:25.954Z,12.73
2018-04-29T03:30:53.365Z,12.37
2018-04-29T03:33:20.787Z,12.15
2018-04-29T03:35:48.217Z,13.45
2018-04-29T03:38:15.723Z,13.20
2018-04-29T03:40:43.155Z,20.23
2018-04-29T03:43:10.555Z,14.93
2018-04-29T03:45:38.246Z,17.80
2018-04-29T03:48:05.669Z,19.92
2018-04-29T03:50:33.148Z,18.10
2018-04-29T03:53:00.547Z,26.80
2018-04-29T03:55:27.991Z,16.65
2018-04-29T03:58:07.180Z,20.92
2018-04-29T04:04:00.226Z,12.90
2018-04-29T04:06:27.725Z,17.73
2018-04-29T04:08:55.136Z,25.80
2018-04-29T04:11:22.644Z,20.95
2018-04-29T04:13:50.117Z,16.48
2018-04-29T04:16:17.920Z,21.27
2018-04-29T04:18:45.360Z,17.25
2018-04-29T04:21:12.844Z,13.73
2018-04-29T04:23:40.326Z,12.63
2018-04-29T04:26:07.722Z,11.07
2018-04-29T04:28:35.181Z,15.32
2018-04-29T04:31:02.602Z,14.10
2018-04-29T04:33:30.079Z,10.10
2018-04-29T04:35:57.540Z,13.30
2018-04-29T04:38:24.965Z,15.20
2018-04-29T04:40:52.363Z,11.32
2018-04-29T04:43:20.414Z,13.60
2018-04-29T04:45:47.893Z,24.08
2018-04-29T04:48:15.351Z,12.30
2018-04-29T04:50:43.385Z,12.60
2018-04-29T04:53:10.775Z,13.68
2018-04-29T04:55:38.209Z,12.27
2018-04-29T04:58:05.737Z,13.23
2018-04-29T05:00:33.146Z,16.75
2018-04-29T05:03:00.560Z,18.45
2018-04-29T05:05:28.071Z,16.90
2018-04-29T05:07:55.468Z,12.37
2018-04-29T05:10:22.889Z,15.77
2018-04-29T05:12:50.291Z,14.00
2018-04-29T05:15:17.781Z,18.45
2018-04-29T05:17:45.268Z,15.20
2018-04-29T05:20:12.676Z,18.65
2018-04-29T05:22:40.119Z,16.08
2018-04-29T05:25:07.536Z,15.93
2018-04-29T05:27:34.999Z,17.25
2018-04-29T05:30:02.463Z,16.33
2018-04-29T05:32:29.913Z,17.20
2018-04-29T05:34:57.392Z,18.83
2018-04-29T05:37:24.807Z,19.77
2018-04-29T05:39:52.289Z,19.12
2018-04-29T05:42:19.767Z,16.05
2018-04-29T05:44:47.585Z,18.10
2018-04-29T05:47:15.035Z,25.45
2018-04-29T05:49:42.480Z,17.70
2018-04-29T05:52:09.919Z,16.20
2018-04-29T05:54:37.356Z,17.00
2018-04-29T05:57:04.820Z,16.17
2018-04-29T05:59:32.248Z,16.12
2018-04-29T06:01:59.823Z,13.40
2018-04-29T06:04:27.603Z,22.65
2018-04-29T06:06:55.043Z,18.65
2018-04-29T06:09:22.483Z,19.33
2018-04-29T06:11:49.931Z,17.62
2018-04-29T06:14:17.376Z,14.70
2018-04-29T06:16:44.801Z,16.40
2018-04-29T06:19:12.256Z,18.52
2018-04-29T06:21:39.701Z,18.33
2018-04-29T06:24:07.164Z,15.48
2018-04-29T06:26:34.641Z,16.48
2018-04-29T06:29:02.124Z,10.18
2018-04-29T06:31:29.516Z,11.88
2018-04-29T06:33:56.941Z,12.45
2018-04-29T06:36:24.414Z,15.65
2018-04-29T06:38:51.893Z,8.43
2018-04-29T06:41:19.371Z,13.62
2018-04-29T06:43:46.757Z,13.95
2018-04-29T06:46:14.365Z,15.32
2018-04-29T06:48:41.764Z,12.37
2018-04-29T06:51:09.280Z,13.35
2018-04-29T06:53:36.778Z,8.43
2018-04-29T06:56:04.214Z,11.27
2018-04-29T06:58:31.688Z,8.68
2018-04-29T07:00:59.089Z,7.78
2018-04-29T07:03:26.560Z,12.55
2018-04-29T07:05:54.036Z,10.65
2018-04-29T07:08:21.518Z,11.65
2018-04-29T07:10:48.977Z,7.70
2018-04-29T07:13:16.432Z,13.77
2018-04-29T07:15:43.863Z,9.43
2018-04-29T07:18:11.270Z,13.82
2018-04-29T07:20:38.672Z,15.70
2018-04-29T07:23:06.099Z,8.73
2018-04-29T07:25:33.669Z,13.05
2018-04-29T07:28:01.081Z,9.30
2018-04-29T07:30:28.626Z,11.25
2018-04-29T07:32:56.084Z,9.55
2018-04-29T07:35:23.509Z,9.18
2018-04-29T07:37:50.995Z,11.85
2018-04-29T07:40:18.456Z,13.90
2018-04-29T07:42:45.913Z,13.70
2018-04-29T07:45:13.319Z,10.38
2018-04-29T07:47:40.841Z,8.95
2018-04-29T07:50:08.267Z,15.02
2018-04-29T07:52:35.970Z,11.02
2018-04-29T07:55:03.403Z,19.70
2018-04-29T07:57:30.801Z,8.30
2018-04-29T07:59:58.282Z,12.60
2018-04-29T08:02:25.700Z,10.45
2018-04-29T08:04:53.100Z,11.23
2018-04-29T08:07:20.602Z,14.30
2018-04-29T08:09:48.072Z,10.60
2018-04-29T08:12:15.549Z,17.67
2018-04-29T08:14:43.037Z,18.60
2018-04-29T08:17:10.507Z,12.77
2018-04-29T08:19:37.991Z,7.85
2018-04-29T08:22:05.428Z,12.77
2018-04-29T08:24:33.178Z,12.00
2018-04-29T08:27:00.632Z,15.07
2018-04-29T08:29:28.109Z,11.02
2018-04-29T08:31:55.690Z,9.13
2018-04-29T08:34:23.147Z,13.15
2018-04-29T08:36:50.556Z,7.80
2018-04-29T08:39:18.004Z,17.65
2018-04-29T08:41:45.493Z,11.18
2018-04-29T08:44:13.295Z,10.45
2018-04-29T08:46:40.715Z,9.77
2018-04-29T08:49:08.177Z,8.93
2018-04-29T08:51:35.651Z,9.35
2018-04-29T08:54:03.116Z,9.13
2018-04-29T08:56:30.627Z,11.27
2018-04-29T08:58:58.302Z,14.93
2018-04-29T09:01:25.785Z,8.57
2018-04-29T09:03:53.315Z,11.43
2018-04-29T09:06:20.667Z,14.13
2018-04-29T09:08:48.182Z,17.95
2018-04-29T09:11:15.615Z,13.45
2018-04-29T09:13:43.084Z,15.13
2018-04-29T09:16:10.521Z,18.27
2018-04-29T09:18:37.939Z,14.40
2018-04-29T09:21:05.419Z,13.68
2018-04-29T09:23:33.510Z,22.83
2018-04-29T09:26:00.971Z,16.42
2018-04-29T09:28:28.595Z,11.25
2018-04-29T09:30:56.025Z,12.60
2018-04-29T09:33:23.478Z,12.07
2018-04-29T09:35:50.944Z,14.68
2018-04-29T09:38:18.455Z,15.27
2018-04-29T09:40:45.900Z,17.50
2018-04-29T09:43:13.365Z,17.45
2018-04-29T09:45:40.766Z,10.95
2018-04-29T09:48:08.237Z,9.75
2018-04-29T09:50:35.672Z,12.68
2018-04-29T09:53:03.133Z,12.85
2018-04-29T09:55:30.736Z,13.75
2018-04-29T09:57:58.194Z,12.52
2018-04-29T10:00:26.606Z,13.13
2018-04-29T10:02:54.053Z,11.85
2018-04-29T10:05:21.679Z,10.68
2018-04-29T10:07:49.101Z,9.23
2018-04-29T10:10:16.545Z,8.38
2018-04-29T10:12:44.212Z,9.57
2018-04-29T10:15:11.687Z,15.25
2018-04-29T10:17:39.196Z,14.82
2018-04-29T10:20:06.661Z,12.75
2018-04-29T10:22:34.074Z,19.42
2018-04-29T10:25:01.897Z,11.60
2018-04-29T10:27:29.296Z,13.15
2018-04-29T10:29:56.864Z,10.98
2018-04-29T10:32:24.510Z,14.50
2018-04-29T10:34:51.885Z,11.98
2018-04-29T10:37:19.353Z,13.93
2018-04-29T10:39:46.951Z,8.45
2018-04-29T10:42:14.393Z,15.73
2018-04-29T10:44:41.852Z,15.23
2018-04-29T10:47:09.254Z,18.20
2018-04-29T10:49:36.688Z,15.50
2018-04-29T10:54:31.112Z,7.90
2018-04-29T10:56:58.607Z,10.43
2018-04-29T10:59:26.271Z,9.00
2018-04-29T11:01:53.726Z,15.23
2018-04-29T11:04:21.300Z,11.63
2018-04-29T11:06:49.604Z,16.98
2018-04-29T11:09:17.097Z,10.88
2018-04-29T11:11:44.643Z,15.00
2018-04-29T11:14:12.159Z,10.38
2018-04-29T11:16:39.663Z,11.52
2018-04-29T11:19:07.124Z,10.43
2018-04-29T11:21:34.580Z,12.00
2018-04-29T11:24:02.526Z,11.07
2018-04-29T11:26:29.947Z,12.02
2018-04-29T11:28:57.453Z,9.23
2018-04-29T11:31:24.923Z,12.50
2018-04-29T11:33:52.403Z,9.23
2018-04-29T11:36:19.838Z,12.05
2018-04-29T11:38:47.940Z,13.32
2018-04-29T11:41:15.372Z,9.25
2018-04-29T11:46:09.977Z,10.63
2018-04-29T11:48:37.492Z,9.93
2018-04-29T11:51:04.928Z,10.50
2018-04-29T11:53:32.371Z,11.68
2018-04-29T11:55:59.908Z,10.70
2018-04-29T11:58:27.432Z,11.73
2018-04-29T12:00:54.845Z,11.90
2018-04-29T12:03:22.326Z,9.07
2018-04-29T12:05:49.781Z,8.60
2018-04-29T12:08:17.236Z,8.73
2018-04-29T12:10:44.710Z,15.10
2018-04-29T12:13:12.125Z,9.85
2018-04-29T12:15:39.696Z,10.27
2018-04-29T12:18:07.197Z,8.82
2018-04-29T12:20:34.612Z,10.20
2018-04-29T12:23:02.082Z,11.15
2018-04-29T12:25:29.475Z,21.67
2018-04-29T12:27:56.946Z,12.32
2018-04-29T12:30:24.426Z,11.55
2018-04-29T12:32:53.084Z,11.60
2018-04-29T12:35:20.633Z,10.65
2018-04-29T12:37:48.073Z,8.55
2018-04-29T12:40:15.510Z,13.00
2018-04-29T12:42:42.980Z,8.85
2018-04-29T12:45:10.418Z,16.37
2018-04-29T12:47:37.869Z,10.73
2018-04-29T12:50:05.373Z,10.13
2018-04-29T12:52:32.800Z,8.10
2018-04-29T12:55:00.227Z,13.50
2018-04-29T12:57:27.632Z,10.80
2018-04-29T12:59:55.064Z,10.63
2018-04-29T13:02:22.492Z,16.37
2018-04-29T13:04:49.972Z,8.77
2018-04-29T13:07:17.398Z,10.15
2018-04-29T13:09:44.869Z,11.32
2018-04-29T13:12:12.292Z,15.55
2018-04-29T13:14:39.749Z,7.87
2018-04-29T13:17:07.325Z,13.75
2018-04-29T13:19:34.753Z,14.60
2018-04-29T13:22:02.196Z,12.65
2018-04-29T13:24:29.656Z,10.93
2018-04-29T13:26:57.108Z,12.32
2018-04-29T13:29:24.572Z,17.02
2018-04-29T13:31:52.012Z,8.20
2018-04-29T13:34:19.495Z,7.55
2018-04-29T13:36:47.104Z,11.18
2018-04-29T13:39:14.571Z,13.98
2018-04-29T13:41:42.051Z,12.93
2018-04-29T13:44:09.515Z,14.50
2018-04-29T13:46:36.998Z,7.32
2018-04-29T13:49:04.392Z,15.50
2018-04-29T13:51:31.846Z,16.45
2018-04-29T13:53:59.292Z,9.20
2018-04-29T13:56:26.687Z,9.85
2018-04-29T13:58:54.215Z,6.82
2018-04-29T14:01:21.660Z,10.75
2018-04-29T14:03:49.129Z,9.60
2018-04-29T14:06:16.568Z,11.55
2018-04-29T14:08:44.136Z,9.45
2018-04-29T14:11:11.655Z,14.82
2018-04-29T14:13:39.484Z,11.40
2018-04-29T14:16:07.047Z,11.75
2018-04-29T14:18:34.453Z,7.43
2018-04-29T14:21:01.904Z,16.30
2018-04-29T14:23:29.451Z,8.48
2018-04-29T14:25:56.887Z,7.57
2018-04-29T14:28:24.451Z,12.10
2018-04-29T14:30:51.933Z,8.65
2018-04-29T14:33:19.326Z,9.25
2018-04-29T14:35:46.778Z,6.45
2018-04-29T14:38:14.213Z,24.77
2018-04-29T14:40:41.707Z,10.68
2018-04-29T14:43:09.286Z,8.95
2018-04-29T14:45:36.739Z,12.68
2018-04-29T14:48:04.227Z,14.00
2018-04-29T14:50:31.691Z,14.73
2018-04-29T14:52:59.181Z,11.65
2018-04-29T14:55:26.781Z,5.90
2018-04-29T14:57:54.247Z,12.75
2018-04-29T15:00:21.679Z,14.80
2018-04-29T15:02:49.114Z,8.30
2018-04-29T15:05:16.533Z,7.12
2018-04-29T15:07:43.963Z,9.07
2018-04-29T15:10:11.458Z,8.65
2018-04-29T15:12:39.001Z,10.15
2018-04-29T15:15:07.403Z,9.80
2018-04-29T15:17:35.250Z,9.35
2018-04-29T15:20:02.783Z,12.65
2018-04-29T15:22:30.288Z,8.90
2018-04-29T15:24:57.764Z,11.98
2018-04-29T15:27:25.181Z,9.57
2018-04-29T15:29:52.627Z,8.07
2018-04-29T15:32:20.092Z,20.05
2018-04-29T15:34:47.523Z,12.07
2018-04-29T15:37:14.987Z,14.38
2018-04-29T15:39:42.438Z,15.20
2018-04-29T15:42:09.940Z,21.23
2018-04-29T15:44:37.385Z,13.38
2018-04-29T15:47:04.858Z,12.37
2018-04-29T15:49:32.314Z,6.90
2018-04-29T15:51:59.770Z,11.40
2018-04-29T15:54:27.380Z,11.48
2018-04-29T15:56:54.790Z,18.77
2018-04-29T15:59:22.262Z,8.32
2018-04-29T16:01:50.003Z,11.88
2018-04-29T16:04:17.431Z,7.62
2018-04-29T16:06:44.875Z,30.05
2018-04-29T16:09:12.326Z,11.05
2018-04-29T16:11:39.796Z,11.63
2018-04-29T16:14:07.330Z,11.38
2018-04-29T16:16:34.815Z,10.80
2018-04-29T16:19:02.285Z,16.50
2018-04-29T16:21:30.444Z,11.82
2018-04-29T16:23:57.908Z,9.20
2018-04-29T16:26:25.284Z,14.55
2018-04-29T16:28:52.720Z,9.65
2018-04-29T16:31:20.216Z,14.07
2018-04-29T16:33:47.718Z,12.40
2018-04-29T16:36:15.152Z,7.55
2018-04-29T16:38:42.588Z,11.73
2018-04-29T16:41:09.985Z,7.90
2018-04-29T16:43:37.514Z,14.50
2018-04-29T16:46:05.555Z,20.55
2018-04-29T16:48:33.004Z,12.02
2018-04-29T16:51:00.481Z,7.30
2018-04-29T16:53:28.635Z,11.38
2018-04-29T16:55:56.077Z,16.23
2018-04-29T16:58:23.487Z,11.38
2018-04-29T17:00:50.961Z,17.40
2018-04-29T17:03:18.647Z,9.70
2018-04-29T17:05:46.124Z,9.57
2018-04-29T17:08:13.577Z,12.32
2018-04-29T17:10:40.994Z,11.10
2018-04-29T17:13:09.308Z,9.70
2018-04-29T17:15:36.772Z,18.10
2018-04-29T17:18:04.186Z,9.15
2018-04-29T17:20:31.702Z,7.20
2018-04-29T17:22:59.291Z,19.85
2018-04-29T17:25:26.744Z,17.60
2018-04-29T17:27:54.251Z,10.50
2018-04-29T17:30:21.715Z,10.45
2018-04-29T17:32:49.159Z,44.35
2018-04-29T17:35:16.554Z,44.33
2018-04-29T17:37:43.966Z,50.17
2018-04-29T17:40:11.440Z,41.37
2018-04-29T17:42:39.077Z,37.10
2018-04-29T17:45:06.512Z,19.27
2018-04-29T17:47:33.957Z,10.27
2018-04-29T17:50:01.410Z,11.88
2018-04-29T17:52:28.799Z,7.60
2018-04-29T17:54:56.222Z,13.30
2018-04-29T17:57:23.701Z,7.93
2018-04-29T17:59:51.095Z,9.55
2018-04-29T18:02:18.617Z,9.95
2018-04-29T18:04:46.067Z,10.50
2018-04-29T18:07:13.554Z,9.68
2018-04-29T18:09:40.981Z,10.70
2018-04-29T18:12:08.443Z,16.80
2018-04-29T18:14:35.842Z,7.15
2018-04-29T18:17:03.276Z,7.62
2018-04-29T18:19:30.733Z,9.90
2018-04-29T18:21:58.345Z,11.12
2018-04-29T18:24:25.924Z,12.35
2018-04-29T18:26:53.432Z,10.35
2018-04-29T18:29:20.837Z,15.13
2018-04-29T18:31:48.373Z,7.32
2018-04-29T18:34:15.832Z,21.45
2018-04-29T18:36:43.309Z,14.27
2018-04-29T18:39:10.729Z,19.70
2018-04-29T18:41:38.206Z,9.80
2018-04-29T18:44:05.644Z,9.10
2018-04-29T18:46:33.102Z,5.32
2018-04-29T18:49:00.507Z,6.50
2018-04-29T18:51:28.104Z,8.13
2018-04-29T18:53:55.481Z,7.35
2018-04-29T18:56:22.938Z,7.12
2018-04-29T18:58:50.391Z,7.60
2018-04-29T19:01:17.868Z,7.80
2018-04-29T19:03:45.301Z,6.10
2018-04-29T19:06:12.781Z,7.75
2018-04-29T19:08:40.224Z,4.50
2018-04-29T19:11:07.622Z,3.37
2018-04-29T19:13:35.327Z,5.40
2018-04-29T19:16:02.727Z,3.47
2018-04-29T19:18:30.230Z,2.70
2018-04-29T19:20:57.704Z,2.42
2018-04-29T19:23:25.102Z,4.07
2018-04-29T19:25:52.519Z,3.12
2018-04-29T19:28:19.969Z,2.87
2018-04-29T19:30:47.427Z,2.72
2018-04-29T19:33:14.879Z,1.70
2018-04-29T19:35:42.300Z,2.75
2018-04-29T19:38:10.369Z,3.85
2018-04-29T19:40:37.821Z,3.33
2018-04-29T19:43:05.284Z,3.00
2018-04-29T19:45:32.689Z,2.60
2018-04-29T19:48:00.145Z,3.05
2018-04-29T19:50:27.584Z,3.55
2018-04-29T19:52:55.080Z,2.00
2018-04-29T19:55:22.581Z,1.85
2018-04-29T19:57:50.004Z,3.33
2018-04-29T20:00:18.104Z,3.17
2018-04-29T20:02:45.609Z,4.60
2018-04-29T20:05:13.054Z,5.75
2018-04-29T20:07:40.493Z,3.17
2018-04-29T20:10:07.893Z,3.67
2018-04-29T20:12:35.472Z,3.87
2018-04-29T20:15:02.893Z,5.07
2018-04-29T20:17:30.320Z,4.40
2018-04-29T20:19:57.759Z,2.42
2018-04-29T20:22:25.217Z,4.50
2018-04-29T20:24:52.614Z,3.28
2018-04-29T20:27:20.017Z,3.75
2018-04-29T20:29:47.494Z,3.78
2018-04-29T20:32:26.874Z,5.10
2018-04-29T20:34:54.359Z,3.97
2018-04-29T20:37:21.792Z,2.10
2018-04-29T20:39:49.223Z,5.82
2018-04-29T20:42:16.652Z,3.78
2018-04-29T20:44:44.051Z,3.00
2018-04-29T20:47:11.490Z,3.42
2018-04-29T20:49:38.912Z,2.72
2018-04-29T20:52:06.343Z,2.22
2018-04-29T20:54:33.807Z,4.53
2018-04-29T20:57:01.331Z,4.75
2018-04-29T20:59:28.814Z,6.80
2018-04-29T21:01:56.281Z,3.47
2018-04-29T21:04:23.734Z,3.25
2018-04-29T21:06:51.127Z,5.60
2018-04-29T21:09:18.674Z,2.25
2018-04-29T21:11:46.099Z,3.25
2018-04-29T21:14:13.551Z,3.45
2018-04-29T21:16:41.292Z,3.47
2018-04-29T21:19:08.760Z,2.83
2018-04-29T21:21:36.236Z,4.75
2018-04-29T21:24:03.933Z,4.28
2018-04-29T21:26:31.364Z,6.47
2018-04-29T21:28:58.917Z,7.35
2018-04-29T21:31:26.342Z,5.40
2018-04-29T21:33:53.744Z,5.80
2018-04-29T21:36:22.021Z,3.50
2018-04-29T21:38:50.128Z,3.72
2018-04-29T21:41:17.613Z,2.53
2018-04-29T21:43:45.036Z,3.90
2018-04-29T21:46:12.473Z,2.67
2018-04-29T21:48:39.955Z,4.78
2018-04-29T21:51:07.385Z,5.87
2018-04-29T21:53:34.834Z,2.92
2018-04-29T21:56:02.463Z,3.25
2018-04-29T21:58:29.935Z,3.05
2018-04-29T22:00:57.410Z,6.68
2018-04-29T22:03:24.811Z,4.15
2018-04-29T22:05:52.240Z,2.25
2018-04-29T22:08:19.678Z,3.17
2018-04-29T22:10:47.180Z,3.47
2018-04-29T22:13:14.666Z,4.40
2018-04-29T22:15:42.063Z,3.03
2018-04-29T22:18:09.547Z,5.40
2018-04-29T22:20:36.974Z,6.70
2018-04-29T22:23:04.364Z,6.65
2018-04-29T22:25:31.799Z,3.37
2018-04-29T22:27:59.444Z,3.80
2018-04-29T22:30:26.872Z,5.72
2018-04-29T22:32:54.297Z,4.45
2018-04-29T22:35:21.717Z,5.32
2018-04-29T22:37:49.239Z,3.78
2018-04-29T22:40:16.709Z,6.07
2018-04-29T22:42:44.142Z,2.50
2018-04-29T22:45:11.635Z,4.07
2018-04-29T22:47:39.063Z,2.25
2018-04-29T22:50:06.443Z,3.33
2018-04-29T22:52:33.904Z,4.65
2018-04-29T22:55:01.338Z,2.40
2018-04-29T22:57:28.728Z,4.25
2018-04-29T22:59:56.196Z,3.50
2018-04-29T23:02:23.639Z,3.83
2018-04-29T23:04:51.040Z,3.10
2018-04-29T23:07:18.502Z,2.70
2018-04-29T23:09:45.927Z,2.95
2018-04-29T23:12:13.366Z,2.80
2018-04-29T23:14:40.839Z,2.40
2018-04-29T23:17:08.360Z,2.55
2018-04-29T23:19:35.850Z,5.62
2018-04-29T23:22:03.316Z,4.25
2018-04-29T23:24:30.715Z,3.95
2018-04-29T23:26:58.118Z,4.75
2018-04-29T23:29:25.544Z,3.25
2018-04-29T23:31:53.005Z,2.70
2018-04-29T23:34:20.502Z,3.87
2018-04-29T23:36:47.900Z,3.03
2018-04-29T23:39:15.323Z,2.62
2018-04-29T23:41:42.835Z,3.95
2018-04-29T23:44:10.290Z,6.00
2018-04-29T23:46:37.695Z,5.55
2018-04-29T23:49:05.189Z,3.00
2018-04-29T23:51:32.662Z,3.12
2018-04-29T23:54:00.117Z,3.55
2018-04-29T23:56:27.550Z,11.88
2018-04-29T23:58:54.954Z,4.10
